createdAt,value
2018-06-11T00:00:08.944Z,1010.34
2018-06-11T00:01:08.884Z,1010.38
2018-06-11T00:02:08.807Z,1010.30
2018-06-11T00:03:08.791Z,1010.34
2018-06-11T00:04:08.728Z,1010.40
2018-06-11T00:05:08.688Z,1010.37
2018-06-11T00:06:08.650Z,1010.34
2018-06-11T00:07:08.607Z,1010.36
2018-06-11T00:08:08.570Z,1010.40
2018-06-11T00:09:08.527Z,1010.43
2018-06-11T00:10:08.486Z,1010.47
2018-06-11T00:11:08.463Z,1010.46
2018-06-11T00:12:08.433Z,1010.46
2018-06-11T00:13:08.371Z,1010.48
2018-06-11T00:14:08.351Z,1010.49
2018-06-11T00:15:08.311Z,1010.43
2018-06-11T00:16:08.264Z,1010.45
2018-06-11T00:17:08.214Z,1010.45
2018-06-11T00:18:08.180Z,1010.46
2018-06-11T00:19:08.143Z,1010.48
2018-06-11T00:20:08.083Z,1010.49
2018-06-11T00:21:08.042Z,1010.48
2018-06-11T00:22:07.999Z,1010.46
2018-06-11T00:23:07.959Z,1010.46
2018-06-11T00:24:07.923Z,1010.44
2018-06-11T00:25:07.882Z,1010.44
2018-06-11T00:26:07.837Z,1010.46
2018-06-11T00:27:07.798Z,1010.45
2018-06-11T00:28:07.756Z,1010.43
2018-06-11T00:29:07.726Z,1010.44
2018-06-11T00:30:07.678Z,1010.44
2018-06-11T00:31:07.635Z,1010.41
2018-06-11T00:32:07.596Z,1010.42
2018-06-11T00:33:07.560Z,1010.43
2018-06-11T00:34:07.518Z,1010.39
2018-06-11T00:35:07.473Z,1010.41
2018-06-11T00:36:07.433Z,1010.39
2018-06-11T00:37:07.396Z,1010.39
2018-06-11T00:38:07.356Z,1010.37
2018-06-11T00:39:07.310Z,1010.36
2018-06-11T00:40:07.308Z,1010.38
2018-06-11T00:41:07.252Z,1010.39
2018-06-11T00:42:07.207Z,1010.39
2018-06-11T00:43:07.153Z,1010.47
2018-06-11T00:44:07.108Z,1010.40
2018-06-11T00:45:07.068Z,1010.44
2018-06-11T00:46:07.031Z,1010.45
2018-06-11T00:47:06.985Z,1010.47
2018-06-11T00:48:06.946Z,1010.44
2018-06-11T00:49:06.905Z,1010.46
2018-06-11T00:50:06.864Z,1010.41
2018-06-11T00:51:06.825Z,1010.39
2018-06-11T00:52:06.784Z,1010.40
2018-06-11T00:53:06.741Z,1010.34
2018-06-11T00:54:06.701Z,1010.35
2018-06-11T00:55:06.661Z,1010.32
2018-06-11T00:56:06.620Z,1010.36
2018-06-11T00:57:06.589Z,1010.31
2018-06-11T00:58:06.538Z,1010.36
2018-06-11T00:59:06.511Z,1010.28
2018-06-11T01:00:06.458Z,1010.30
2018-06-11T01:01:06.417Z,1010.34
2018-06-11T01:02:06.378Z,1010.30
2018-06-11T01:03:06.343Z,1010.33
2018-06-11T01:04:06.298Z,1010.33
2018-06-11T01:05:06.254Z,1010.30
2018-06-11T01:06:06.213Z,1010.36
2018-06-11T01:07:06.173Z,1010.33
2018-06-11T01:08:06.174Z,1010.37
2018-06-11T01:09:06.094Z,1010.32
2018-06-11T01:10:06.051Z,1010.35
2018-06-11T01:11:06.011Z,1010.36
2018-06-11T01:12:05.971Z,1010.30
2018-06-11T01:13:05.930Z,1010.28
2018-06-11T01:14:05.888Z,1010.23
2018-06-11T01:15:05.847Z,1010.25
2018-06-11T01:16:05.828Z,1010.21
2018-06-11T01:17:05.781Z,1010.15
2018-06-11T01:18:05.735Z,1010.14
2018-06-11T01:19:05.691Z,1010.12
2018-06-11T01:20:05.646Z,1010.10
2018-06-11T01:21:05.605Z,1010.09
2018-06-11T01:22:05.563Z,1010.11
2018-06-11T01:23:05.527Z,1010.09
2018-06-11T01:24:05.482Z,1010.06
2018-06-11T01:25:05.445Z,1010.02
2018-06-11T01:26:05.400Z,1010.01
2018-06-11T01:27:05.366Z,1009.99
2018-06-11T01:28:05.320Z,1009.99
2018-06-11T01:29:05.281Z,1009.98
2018-06-11T01:30:05.306Z,1010.00
2018-06-11T01:31:05.196Z,1010.00
2018-06-11T01:32:05.167Z,1010.07
2018-06-11T01:33:05.120Z,1010.05
2018-06-11T01:34:05.076Z,1010.02
2018-06-11T01:35:05.034Z,1010.02
2018-06-11T01:36:04.994Z,1010.05
2018-06-11T01:37:04.953Z,1010.05
2018-06-11T01:38:04.914Z,1010.03
2018-06-11T01:39:04.871Z,1010.05
2018-06-11T01:40:04.829Z,1010.02
2018-06-11T01:41:04.790Z,1009.98
2018-06-11T01:42:04.748Z,1009.95
2018-06-11T01:43:04.711Z,1009.91
2018-06-11T01:44:04.667Z,1009.91
2018-06-11T01:45:04.628Z,1009.87
2018-06-11T01:46:04.590Z,1009.87
2018-06-11T01:47:04.547Z,1009.84
2018-06-11T01:48:04.504Z,1009.84
2018-06-11T01:49:04.468Z,1009.85
2018-06-11T01:50:04.422Z,1009.84
2018-06-11T01:51:04.380Z,1009.79
2018-06-11T01:52:04.355Z,1009.81
2018-06-11T01:53:04.300Z,1009.81
2018-06-11T01:54:04.269Z,1009.79
2018-06-11T01:55:04.217Z,1009.77
2018-06-11T01:56:04.178Z,1009.80
2018-06-11T01:57:04.138Z,1009.85
2018-06-11T01:58:04.098Z,1009.85
2018-06-11T01:59:04.054Z,1009.83
2018-06-11T02:00:04.021Z,1009.87
2018-06-11T02:01:03.974Z,1009.85
2018-06-11T02:02:03.931Z,1009.82
2018-06-11T02:04:03.856Z,1009.80
2018-06-11T02:05:03.814Z,1009.82
2018-06-11T02:06:03.769Z,1009.79
2018-06-11T02:07:03.728Z,1009.82
2018-06-11T02:08:03.692Z,1009.82
2018-06-11T02:09:03.644Z,1009.78
2018-06-11T02:10:03.604Z,1009.77
2018-06-11T02:11:03.563Z,1009.81
2018-06-11T02:12:03.525Z,1009.81
2018-06-11T02:13:03.487Z,1009.81
2018-06-11T02:14:03.440Z,1009.74
2018-06-11T02:15:03.400Z,1009.81
2018-06-11T02:16:03.358Z,1009.80
2018-06-11T02:17:03.319Z,1009.78
2018-06-11T02:18:03.275Z,1009.74
2018-06-11T02:19:03.235Z,1009.73
2018-06-11T02:20:03.193Z,1009.76
2018-06-11T02:21:03.154Z,1009.73
2018-06-11T02:22:03.117Z,1009.74
2018-06-11T02:23:03.072Z,1009.77
2018-06-11T02:24:03.030Z,1009.74
2018-06-11T02:25:02.989Z,1009.76
2018-06-11T02:26:02.948Z,1009.75
2018-06-11T02:27:02.912Z,1009.77
2018-06-11T02:28:02.866Z,1009.72
2018-06-11T02:29:02.829Z,1009.76
2018-06-11T02:30:02.786Z,1009.77
2018-06-11T02:31:02.746Z,1009.80
2018-06-11T02:32:02.704Z,1009.77
2018-06-11T02:33:02.661Z,1009.80
2018-06-11T02:34:02.619Z,1009.80
2018-06-11T02:35:02.577Z,1009.81
2018-06-11T02:36:02.542Z,1009.84
2018-06-11T02:37:02.498Z,1009.84
2018-06-11T02:38:02.456Z,1009.87
2018-06-11T02:39:02.413Z,1009.90
2018-06-11T02:40:02.374Z,1009.88
2018-06-11T02:41:02.335Z,1009.88
2018-06-11T02:42:02.290Z,1009.88
2018-06-11T02:43:02.249Z,1009.83
2018-06-11T02:44:02.208Z,1009.88
2018-06-11T02:45:02.169Z,1009.86
2018-06-11T02:46:02.126Z,1009.80
2018-06-11T02:47:02.084Z,1009.88
2018-06-11T02:48:02.045Z,1009.83
2018-06-11T02:49:02.027Z,1009.82
2018-06-11T02:50:01.961Z,1009.82
2018-06-11T02:51:01.920Z,1009.81
2018-06-11T02:52:01.879Z,1009.84
2018-06-11T02:53:01.843Z,1009.79
2018-06-11T02:54:01.799Z,1009.76
2018-06-11T02:55:01.756Z,1009.72
2018-06-11T02:56:01.713Z,1009.73
2018-06-11T02:57:01.675Z,1009.66
2018-06-11T02:58:01.634Z,1009.68
2018-06-11T02:59:01.591Z,1009.62
2018-06-11T03:00:01.551Z,1009.66
2018-06-11T03:01:01.509Z,1009.67
2018-06-11T03:02:01.468Z,1009.65
2018-06-11T03:03:01.430Z,1009.65
2018-06-11T03:04:01.386Z,1009.68
2018-06-11T03:05:01.352Z,1009.72
2018-06-11T03:06:01.303Z,1009.69
2018-06-11T03:07:01.263Z,1009.62
2018-06-11T03:08:01.222Z,1009.65
2018-06-11T03:09:01.180Z,1009.64
2018-06-11T03:10:01.136Z,1009.62
2018-06-11T03:11:01.101Z,1009.64
2018-06-11T03:12:01.057Z,1009.62
2018-06-11T03:13:01.016Z,1009.55
2018-06-11T03:14:00.975Z,1009.67
2018-06-11T03:15:00.933Z,1009.67
2018-06-11T03:16:00.892Z,1009.64
2018-06-11T03:17:00.850Z,1009.69
2018-06-11T03:18:00.813Z,1009.67
2018-06-11T03:19:00.767Z,1009.69
2018-06-11T03:20:00.726Z,1009.69
2018-06-11T03:21:00.685Z,1009.69
2018-06-11T03:22:00.646Z,1009.72
2018-06-11T03:23:00.603Z,1009.71
2018-06-11T03:24:00.561Z,1009.73
2018-06-11T03:25:00.523Z,1009.74
2018-06-11T03:26:00.484Z,1009.72
2018-06-11T03:27:00.439Z,1009.74
2018-06-11T03:28:00.400Z,1009.71
2018-06-11T03:29:00.358Z,1009.72
2018-06-11T03:30:00.315Z,1009.72
2018-06-11T03:31:00.277Z,1009.74
2018-06-11T03:32:00.241Z,1009.72
2018-06-11T03:33:00.199Z,1009.71
2018-06-11T03:34:00.154Z,1009.71
2018-06-11T03:35:00.110Z,1009.68
2018-06-11T03:36:00.144Z,1009.66
2018-06-11T03:37:00.097Z,1009.68
2018-06-11T03:37:59.987Z,1009.69
2018-06-11T03:38:59.948Z,1009.68
2018-06-11T03:39:59.902Z,1009.66
2018-06-11T03:40:59.863Z,1009.69
2018-06-11T03:41:59.820Z,1009.68
2018-06-11T03:42:59.781Z,1009.63
2018-06-11T03:43:59.740Z,1009.63
2018-06-11T03:44:59.697Z,1009.67
2018-06-11T03:45:59.654Z,1009.69
2018-06-11T03:46:59.620Z,1009.71
2018-06-11T03:47:59.576Z,1009.68
2018-06-11T03:48:59.531Z,1009.70
2018-06-11T03:49:59.492Z,1009.75
2018-06-11T03:50:59.453Z,1009.75
2018-06-11T03:51:59.409Z,1009.80
2018-06-11T03:52:59.367Z,1009.76
2018-06-11T03:53:59.330Z,1009.77
2018-06-11T03:54:59.286Z,1009.79
2018-06-11T03:55:59.247Z,1009.76
2018-06-11T03:56:59.203Z,1009.77
2018-06-11T03:57:59.162Z,1009.79
2018-06-11T03:58:59.124Z,1009.72
2018-06-11T03:59:59.084Z,1009.74
2018-06-11T04:00:59.041Z,1009.74
2018-06-11T04:01:58.998Z,1009.78
2018-06-11T04:02:58.960Z,1009.82
2018-06-11T04:03:58.922Z,1009.75
2018-06-11T04:04:58.874Z,1009.77
2018-06-11T04:05:58.836Z,1009.78
2018-06-11T04:06:58.791Z,1009.75
2018-06-11T04:07:58.752Z,1009.76
2018-06-11T04:08:58.710Z,1009.68
2018-06-11T04:09:58.668Z,1009.77
2018-06-11T04:10:58.678Z,1009.76
2018-06-11T04:11:58.588Z,1009.78
2018-06-11T04:12:58.557Z,1009.79
2018-06-11T04:13:58.506Z,1009.80
2018-06-11T04:14:58.468Z,1009.81
2018-06-11T04:15:58.427Z,1009.87
2018-06-11T04:16:58.386Z,1009.87
2018-06-11T04:17:58.340Z,1009.85
2018-06-11T04:18:58.300Z,1009.91
2018-06-11T04:19:58.260Z,1009.90
2018-06-11T04:20:58.220Z,1009.93
2018-06-11T04:21:58.177Z,1009.90
2018-06-11T04:22:58.136Z,1009.92
2018-06-11T04:23:58.095Z,1009.91
2018-06-11T04:24:58.054Z,1009.90
2018-06-11T04:25:58.014Z,1009.89
2018-06-11T04:26:57.973Z,1009.89
2018-06-11T04:27:57.928Z,1009.89
2018-06-11T04:28:57.890Z,1009.89
2018-06-11T04:29:57.855Z,1009.88
2018-06-11T04:30:57.810Z,1009.90
2018-06-11T04:31:57.767Z,1009.92
2018-06-11T04:32:57.732Z,1009.89
2018-06-11T04:33:57.683Z,1009.82
2018-06-11T04:34:57.643Z,1009.82
2018-06-11T04:35:57.610Z,1009.80
2018-06-11T04:36:57.563Z,1009.83
2018-06-11T04:37:57.519Z,1009.81
2018-06-11T04:38:57.477Z,1009.84
2018-06-11T04:39:57.441Z,1009.84
2018-06-11T04:40:57.395Z,1009.83
2018-06-11T04:41:57.357Z,1009.83
2018-06-11T04:42:57.320Z,1009.81
2018-06-11T04:43:57.275Z,1009.82
2018-06-11T04:44:57.232Z,1009.77
2018-06-11T04:45:57.193Z,1009.76
2018-06-11T04:46:57.149Z,1009.80
2018-06-11T04:47:57.109Z,1009.79
2018-06-11T04:48:57.069Z,1009.77
2018-06-11T04:49:57.030Z,1009.76
2018-06-11T04:50:56.984Z,1009.68
2018-06-11T04:51:56.946Z,1009.72
2018-06-11T04:52:56.905Z,1009.69
2018-06-11T04:53:56.862Z,1009.67
2018-06-11T04:54:56.825Z,1009.68
2018-06-11T04:55:56.790Z,1009.60
2018-06-11T04:56:56.741Z,1009.60
2018-06-11T04:57:56.706Z,1009.55
2018-06-11T04:58:56.659Z,1009.60
2018-06-11T04:59:56.621Z,1009.59
2018-06-11T05:00:56.579Z,1009.59
2018-06-11T05:01:56.538Z,1009.58
2018-06-11T05:02:56.498Z,1009.62
2018-06-11T05:03:56.458Z,1009.62
2018-06-11T05:04:56.414Z,1009.66
2018-06-11T05:05:56.373Z,1009.62
2018-06-11T05:06:56.334Z,1009.62
2018-06-11T05:07:56.299Z,1009.61
2018-06-11T05:08:56.253Z,1009.60
2018-06-11T05:09:56.211Z,1009.61
2018-06-11T05:10:56.170Z,1009.59
2018-06-11T05:11:56.131Z,1009.65
2018-06-11T05:12:56.095Z,1009.67
2018-06-11T05:13:56.048Z,1009.64
2018-06-11T05:14:56.008Z,1009.69
2018-06-11T05:15:55.967Z,1009.70
2018-06-11T05:16:55.928Z,1009.69
2018-06-11T05:17:55.887Z,1009.66
2018-06-11T05:18:55.843Z,1009.70
2018-06-11T05:19:55.803Z,1009.67
2018-06-11T05:20:55.764Z,1009.70
2018-06-11T05:21:55.725Z,1009.71
2018-06-11T05:22:55.696Z,1009.71
2018-06-11T05:23:55.642Z,1009.71
2018-06-11T05:24:55.600Z,1009.76
2018-06-11T05:25:55.564Z,1009.77
2018-06-11T05:26:55.520Z,1009.79
2018-06-11T05:27:55.479Z,1009.81
2018-06-11T05:28:55.441Z,1009.83
2018-06-11T05:29:55.401Z,1009.88
2018-06-11T05:30:55.359Z,1009.91
2018-06-11T05:31:55.327Z,1009.92
2018-06-11T05:32:55.278Z,1009.92
2018-06-11T05:33:55.234Z,1009.96
2018-06-11T05:34:55.273Z,1009.92
2018-06-11T05:35:55.156Z,1009.92
2018-06-11T05:36:55.118Z,1009.91
2018-06-11T05:37:55.070Z,1009.92
2018-06-11T05:38:55.029Z,1009.90
2018-06-11T05:39:54.991Z,1009.93
2018-06-11T05:40:54.950Z,1009.93
2018-06-11T05:41:54.952Z,1009.95
2018-06-11T05:42:54.869Z,1009.95
2018-06-11T05:43:54.832Z,1009.93
2018-06-11T05:44:54.790Z,1009.96
2018-06-11T05:45:54.748Z,1009.98
2018-06-11T05:46:54.706Z,1009.98
2018-06-11T05:47:54.698Z,1009.97
2018-06-11T05:48:54.628Z,1010.00
2018-06-11T05:49:54.585Z,1010.01
2018-06-11T05:50:54.558Z,1010.05
2018-06-11T05:51:54.505Z,1010.06
2018-06-11T05:52:54.469Z,1010.07
2018-06-11T05:53:54.422Z,1010.01
2018-06-11T05:54:54.382Z,1010.00
2018-06-11T05:55:54.341Z,1010.00
2018-06-11T05:56:54.303Z,1009.96
2018-06-11T05:57:54.260Z,1009.99
2018-06-11T05:58:54.221Z,1009.99
2018-06-11T05:59:54.183Z,1010.01
2018-06-11T06:00:54.142Z,1009.98
2018-06-11T06:01:54.099Z,1009.97
2018-06-11T06:02:54.063Z,1009.98
2018-06-11T06:03:54.020Z,1010.03
2018-06-11T06:04:53.979Z,1010.05
2018-06-11T06:05:53.943Z,1010.12
2018-06-11T06:06:53.896Z,1010.11
2018-06-11T06:07:53.855Z,1010.15
2018-06-11T06:08:53.817Z,1010.19
2018-06-11T06:09:53.775Z,1010.11
2018-06-11T06:10:53.733Z,1010.12
2018-06-11T06:11:53.696Z,1010.14
2018-06-11T06:12:53.654Z,1010.17
2018-06-11T06:13:53.612Z,1010.16
2018-06-11T06:14:53.572Z,1010.21
2018-06-11T06:15:53.530Z,1010.20
2018-06-11T06:16:53.491Z,1010.19
2018-06-11T06:17:53.450Z,1010.16
2018-06-11T06:18:53.412Z,1010.19
2018-06-11T06:19:53.372Z,1010.16
2018-06-11T06:20:53.331Z,1010.12
2018-06-11T06:21:53.290Z,1010.15
2018-06-11T06:22:53.246Z,1010.10
2018-06-11T06:23:53.208Z,1010.13
2018-06-11T06:24:53.168Z,1010.13
2018-06-11T06:25:53.129Z,1010.13
2018-06-11T06:26:53.088Z,1010.16
2018-06-11T06:27:53.044Z,1010.15
2018-06-11T06:28:53.007Z,1010.15
2018-06-11T06:29:52.974Z,1010.18
2018-06-11T06:30:52.924Z,1010.21
2018-06-11T06:31:52.888Z,1010.23
2018-06-11T06:32:52.845Z,1010.22
2018-06-11T06:33:52.806Z,1010.22
2018-06-11T06:34:52.881Z,1010.25
2018-06-11T06:35:52.729Z,1010.24
2018-06-11T06:36:52.682Z,1010.24
2018-06-11T06:37:52.649Z,1010.18
2018-06-11T06:38:52.615Z,1010.18
2018-06-11T06:39:52.565Z,1010.19
2018-06-11T06:40:52.520Z,1010.15
2018-06-11T06:41:52.479Z,1010.20
2018-06-11T06:42:52.440Z,1010.19
2018-06-11T06:43:52.400Z,1010.18
2018-06-11T06:44:52.362Z,1010.17
2018-06-11T06:45:52.317Z,1010.16
2018-06-11T06:46:52.280Z,1010.15
2018-06-11T06:47:52.237Z,1010.13
2018-06-11T06:48:52.198Z,1010.12
2018-06-11T06:49:52.158Z,1010.13
2018-06-11T06:50:52.124Z,1010.11
2018-06-11T06:51:52.077Z,1010.12
2018-06-11T06:52:52.041Z,1010.13
2018-06-11T06:53:51.999Z,1010.08
2018-06-11T06:54:51.956Z,1010.12
2018-06-11T06:55:51.920Z,1010.09
2018-06-11T06:56:51.875Z,1010.07
2018-06-11T06:57:51.838Z,1010.09
2018-06-11T06:58:51.795Z,1010.07
2018-06-11T06:59:51.754Z,1010.05
2018-06-11T07:00:51.716Z,1010.06
2018-06-11T07:01:51.677Z,1010.05
2018-06-11T07:02:51.639Z,1010.03
2018-06-11T07:03:51.593Z,1010.04
2018-06-11T07:04:51.553Z,1010.04
2018-06-11T07:05:51.515Z,1010.02
2018-06-11T07:06:51.506Z,1010.07
2018-06-11T07:07:51.439Z,1010.04
2018-06-11T07:08:51.394Z,1010.10
2018-06-11T07:09:51.357Z,1010.12
2018-06-11T07:10:51.318Z,1010.17
2018-06-11T07:11:51.278Z,1010.13
2018-06-11T07:12:51.253Z,1010.12
2018-06-11T07:13:51.203Z,1010.13
2018-06-11T07:14:51.157Z,1010.11
2018-06-11T07:15:51.115Z,1010.11
2018-06-11T07:16:51.076Z,1010.09
2018-06-11T07:17:51.033Z,1010.11
2018-06-11T07:18:50.996Z,1010.08
2018-06-11T07:19:50.954Z,1010.17
2018-06-11T07:20:50.917Z,1010.13
2018-06-11T07:21:50.874Z,1010.15
2018-06-11T07:22:50.834Z,1010.16
2018-06-11T07:23:50.798Z,1010.20
2018-06-11T07:24:50.754Z,1010.21
2018-06-11T07:25:50.714Z,1010.25
2018-06-11T07:26:50.677Z,1010.27
2018-06-11T07:27:50.637Z,1010.27
2018-06-11T07:28:50.598Z,1010.28
2018-06-11T07:29:50.556Z,1010.31
2018-06-11T07:30:50.516Z,1010.27
2018-06-11T07:31:50.476Z,1010.29
2018-06-11T07:32:50.437Z,1010.27
2018-06-11T07:33:50.402Z,1010.29
2018-06-11T07:34:50.360Z,1010.29
2018-06-11T07:35:50.320Z,1010.30
2018-06-11T07:36:50.278Z,1010.32
2018-06-11T07:37:50.241Z,1010.33
2018-06-11T07:38:50.198Z,1010.28
2018-06-11T07:39:50.158Z,1010.30
2018-06-11T07:40:50.118Z,1010.29
2018-06-11T07:41:50.084Z,1010.26
2018-06-11T07:42:50.040Z,1010.26
2018-06-11T07:43:49.999Z,1010.26
2018-06-11T07:44:49.959Z,1010.23
2018-06-11T07:45:49.923Z,1010.25
2018-06-11T07:46:49.888Z,1010.19
2018-06-11T07:47:49.849Z,1010.23
2018-06-11T07:48:49.804Z,1010.21
2018-06-11T07:49:49.767Z,1010.20
2018-06-11T07:50:49.774Z,1010.29
2018-06-11T07:51:49.709Z,1010.27
2018-06-11T07:52:49.648Z,1010.31
2018-06-11T07:53:49.606Z,1010.27
2018-06-11T07:54:49.568Z,1010.28
2018-06-11T07:55:49.528Z,1010.25
2018-06-11T07:56:49.489Z,1010.26
2018-06-11T07:57:49.450Z,1010.25
2018-06-11T07:58:49.412Z,1010.24
2018-06-11T07:59:49.374Z,1010.26
2018-06-11T08:00:49.333Z,1010.20
2018-06-11T08:01:49.295Z,1010.23
2018-06-11T08:02:49.257Z,1010.27
2018-06-11T08:03:49.220Z,1010.28
2018-06-11T08:04:49.181Z,1010.29
2018-06-11T08:05:49.140Z,1010.25
2018-06-11T08:06:49.099Z,1010.24
2018-06-11T08:07:49.061Z,1010.24
2018-06-11T08:08:49.022Z,1010.20
2018-06-11T08:09:48.982Z,1010.26
2018-06-11T08:10:48.944Z,1010.29
2018-06-11T08:11:48.905Z,1010.30
2018-06-11T08:12:48.870Z,1010.24
2018-06-11T08:13:48.828Z,1010.29
2018-06-11T08:14:48.792Z,1010.27
2018-06-11T08:15:48.750Z,1010.25
2018-06-11T08:16:48.713Z,1010.26
2018-06-11T08:17:48.674Z,1010.23
2018-06-11T08:18:48.634Z,1010.25
2018-06-11T08:19:48.597Z,1010.23
2018-06-11T08:20:48.580Z,1010.23
2018-06-11T08:21:48.519Z,1010.22
2018-06-11T08:22:48.481Z,1010.19
2018-06-11T08:23:48.443Z,1010.17
2018-06-11T08:24:48.406Z,1010.20
2018-06-11T08:25:48.367Z,1010.14
2018-06-11T08:26:48.328Z,1010.08
2018-06-11T08:28:48.252Z,1010.01
2018-06-11T08:29:48.215Z,1009.99
2018-06-11T08:30:48.174Z,1010.00
2018-06-11T08:31:48.136Z,1010.02
2018-06-11T08:32:48.097Z,1009.99
2018-06-11T08:33:48.080Z,1009.95
2018-06-11T08:34:48.021Z,1009.89
2018-06-11T08:35:47.984Z,1009.80
2018-06-11T08:36:47.944Z,1009.81
2018-06-11T08:37:47.905Z,1009.84
2018-06-11T08:38:47.872Z,1009.86
2018-06-11T08:39:47.831Z,1009.86
2018-06-11T08:40:47.793Z,1009.83
2018-06-11T08:41:47.754Z,1009.85
2018-06-11T08:42:47.715Z,1009.84
2018-06-11T08:43:47.679Z,1009.82
2018-06-11T08:44:47.640Z,1009.82
2018-06-11T08:45:47.601Z,1009.81
2018-06-11T08:46:47.567Z,1009.78
2018-06-11T08:47:47.529Z,1009.71
2018-06-11T08:48:47.489Z,1009.82
2018-06-11T08:49:47.452Z,1009.80
2018-06-11T08:50:47.412Z,1009.86
2018-06-11T08:51:47.374Z,1009.87
2018-06-11T08:52:47.336Z,1009.90
2018-06-11T08:53:47.301Z,1009.87
2018-06-11T08:54:47.261Z,1009.83
2018-06-11T08:55:47.226Z,1009.91
2018-06-11T08:56:47.187Z,1009.91
2018-06-11T08:57:47.153Z,1009.91
2018-06-11T08:58:47.115Z,1009.85
2018-06-11T08:59:47.082Z,1009.88
2018-06-11T09:00:47.038Z,1009.85
2018-06-11T09:01:47.002Z,1009.84
2018-06-11T09:02:46.961Z,1009.88
2018-06-11T09:03:46.922Z,1009.87
2018-06-11T09:04:46.886Z,1009.86
2018-06-11T09:05:46.847Z,1009.95
2018-06-11T09:06:46.810Z,1009.93
2018-06-11T09:07:46.774Z,1009.94
2018-06-11T09:08:46.736Z,1009.95
2018-06-11T09:09:46.703Z,1009.95
2018-06-11T09:10:46.664Z,1009.96
2018-06-11T09:11:46.622Z,1009.98
2018-06-11T09:12:46.587Z,1009.98
2018-06-11T09:13:46.547Z,1010.01
2018-06-11T09:14:46.513Z,1010.06
2018-06-11T09:15:46.476Z,1010.04
2018-06-11T09:16:46.436Z,1010.06
2018-06-11T09:17:46.401Z,1010.08
2018-06-11T09:18:46.364Z,1010.09
2018-06-11T09:19:46.325Z,1010.00
2018-06-11T09:20:46.288Z,1010.03
2018-06-11T09:21:46.249Z,1010.04
2018-06-11T09:22:46.214Z,1009.99
2018-06-11T09:23:46.176Z,1010.07
2018-06-11T09:24:46.139Z,1010.07
2018-06-11T09:25:46.101Z,1010.14
2018-06-11T09:26:46.066Z,1010.11
2018-06-11T09:27:46.029Z,1010.13
2018-06-11T09:28:45.990Z,1010.16
2018-06-11T09:29:45.955Z,1010.14
2018-06-11T09:30:45.922Z,1010.13
2018-06-11T09:31:48.084Z,1010.14
2018-06-11T09:32:45.843Z,1010.15
2018-06-11T09:33:45.807Z,1010.14
2018-06-11T09:34:45.784Z,1010.09
2018-06-11T09:35:45.737Z,1010.08
2018-06-11T09:36:45.696Z,1010.10
2018-06-11T09:37:45.659Z,1010.09
2018-06-11T09:38:45.624Z,1010.15
2018-06-11T09:39:45.582Z,1010.20
2018-06-11T09:40:45.547Z,1010.17
2018-06-11T09:41:45.510Z,1010.19
2018-06-11T09:42:45.471Z,1010.17
2018-06-11T09:43:45.520Z,1010.11
2018-06-11T09:44:45.401Z,1010.09
2018-06-11T09:45:45.360Z,1010.07
2018-06-11T09:46:45.327Z,1010.03
2018-06-11T09:47:45.289Z,1010.04
2018-06-11T09:48:45.254Z,1010.03
2018-06-11T09:49:45.214Z,1010.02
2018-06-11T09:50:45.181Z,1010.04
2018-06-11T09:51:45.141Z,1010.05
2018-06-11T09:52:45.106Z,1010.02
2018-06-11T09:53:45.067Z,1010.02
2018-06-11T09:54:45.034Z,1010.01
2018-06-11T09:55:45.002Z,1009.98
2018-06-11T09:56:44.965Z,1009.99
2018-06-11T09:57:44.931Z,1009.97
2018-06-11T09:58:44.899Z,1009.94
2018-06-11T09:59:44.851Z,1009.98
2018-06-11T10:00:44.816Z,1009.91
2018-06-11T10:01:44.780Z,1009.89
2018-06-11T10:02:44.741Z,1009.95
2018-06-11T10:03:44.712Z,1009.93
2018-06-11T10:04:44.674Z,1009.95
2018-06-11T10:05:44.634Z,1009.93
2018-06-11T10:06:44.597Z,1009.93
2018-06-11T10:07:44.568Z,1009.94
2018-06-11T10:08:44.523Z,1009.88
2018-06-11T10:09:44.488Z,1009.89
2018-06-11T10:10:44.452Z,1009.89
2018-06-11T10:11:44.416Z,1009.95
2018-06-11T10:12:44.381Z,1009.92
2018-06-11T10:13:44.343Z,1009.92
2018-06-11T10:14:44.314Z,1009.98
2018-06-11T10:15:44.271Z,1009.94
2018-06-11T10:16:44.238Z,1009.94
2018-06-11T10:17:44.205Z,1009.91
2018-06-11T10:18:44.164Z,1009.91
2018-06-11T10:19:44.133Z,1009.88
2018-06-11T10:20:44.094Z,1009.92
2018-06-11T10:22:44.023Z,1009.87
2018-06-11T10:23:43.984Z,1009.87
2018-06-11T10:24:43.948Z,1009.83
2018-06-11T10:25:43.912Z,1009.89
2018-06-11T10:26:43.882Z,1009.91
2018-06-11T10:27:43.847Z,1009.87
2018-06-11T10:28:43.803Z,1009.91
2018-06-11T10:29:43.772Z,1009.89
2018-06-11T10:30:43.734Z,1009.94
2018-06-11T10:31:43.696Z,1009.90
2018-06-11T10:32:48.468Z,1009.92
2018-06-11T10:33:43.625Z,1009.89
2018-06-11T10:34:43.589Z,1009.86
2018-06-11T10:35:43.555Z,1009.92
2018-06-11T10:36:43.521Z,1009.88
2018-06-11T10:37:43.482Z,1009.87
2018-06-11T10:38:43.448Z,1009.85
2018-06-11T10:39:43.414Z,1009.82
2018-06-11T10:40:43.377Z,1009.85
2018-06-11T10:41:43.341Z,1009.83
2018-06-11T10:42:43.315Z,1009.80
2018-06-11T10:43:43.277Z,1009.83
2018-06-11T10:44:43.237Z,1009.76
2018-06-11T10:45:43.201Z,1009.82
2018-06-11T10:46:43.166Z,1009.87
2018-06-11T10:47:43.129Z,1009.83
2018-06-11T10:48:43.092Z,1009.85
2018-06-11T10:49:43.059Z,1009.79
2018-06-11T10:50:43.022Z,1009.84
2018-06-11T10:51:42.989Z,1009.77
2018-06-11T10:52:42.950Z,1009.71
2018-06-11T10:53:42.916Z,1009.86
2018-06-11T10:54:42.881Z,1009.76
2018-06-11T10:55:42.848Z,1009.73
2018-06-11T10:56:42.812Z,1009.74
2018-06-11T10:57:42.780Z,1009.75
2018-06-11T10:58:42.747Z,1009.77
2018-06-11T10:59:42.710Z,1009.77
2018-06-11T11:00:42.670Z,1009.75
2018-06-11T11:01:42.633Z,1009.79
2018-06-11T11:02:42.597Z,1009.79
2018-06-11T11:03:42.565Z,1009.75
2018-06-11T11:04:42.530Z,1009.73
2018-06-11T11:05:42.493Z,1009.72
2018-06-11T11:06:42.461Z,1009.74
2018-06-11T11:07:42.480Z,1009.77
2018-06-11T11:08:42.394Z,1009.76
2018-06-11T11:09:42.353Z,1009.76
2018-06-11T11:10:42.322Z,1009.77
2018-06-11T11:11:42.284Z,1009.80
2018-06-11T11:12:42.250Z,1009.74
2018-06-11T11:13:42.213Z,1009.82
2018-06-11T11:14:42.182Z,1009.79
2018-06-11T11:15:42.142Z,1009.75
2018-06-11T11:16:42.113Z,1009.71
2018-06-11T11:17:42.072Z,1009.67
2018-06-11T11:18:42.052Z,1009.67
2018-06-11T11:19:42.004Z,1009.60
2018-06-11T11:20:41.970Z,1009.61
2018-06-11T11:21:41.933Z,1009.57
2018-06-11T11:22:41.902Z,1009.59
2018-06-11T11:23:41.866Z,1009.54
2018-06-11T11:24:41.829Z,1009.52
2018-06-11T11:25:41.793Z,1009.52
2018-06-11T11:26:41.760Z,1009.52
2018-06-11T11:27:41.726Z,1009.53
2018-06-11T11:28:41.693Z,1009.51
2018-06-11T11:29:41.674Z,1009.52
2018-06-11T11:30:41.625Z,1009.46
2018-06-11T11:31:41.587Z,1009.46
2018-06-11T11:32:41.551Z,1009.44
2018-06-11T11:33:41.532Z,1009.41
2018-06-11T11:34:41.482Z,1009.36
2018-06-11T11:35:41.449Z,1009.29
2018-06-11T11:36:41.419Z,1009.28
2018-06-11T11:37:41.383Z,1009.31
2018-06-11T11:38:41.343Z,1009.33
2018-06-11T11:39:41.341Z,1009.24
2018-06-11T11:40:41.279Z,1009.31
2018-06-11T11:41:41.243Z,1009.33
2018-06-11T11:42:41.208Z,1009.33
2018-06-11T11:43:41.174Z,1009.33
2018-06-11T11:44:41.139Z,1009.34
2018-06-11T11:45:41.104Z,1009.30
2018-06-11T11:46:41.074Z,1009.33
2018-06-11T11:47:41.036Z,1009.32
2018-06-11T11:48:41.004Z,1009.32
2018-06-11T11:49:40.969Z,1009.30
2018-06-11T11:50:40.939Z,1009.23
2018-06-11T11:51:40.903Z,1009.25
2018-06-11T11:52:40.867Z,1009.25
2018-06-11T11:53:40.840Z,1009.16
2018-06-11T11:54:40.802Z,1009.19
2018-06-11T11:55:40.773Z,1009.18
2018-06-11T11:56:40.735Z,1009.21
2018-06-11T11:57:40.699Z,1009.19
2018-06-11T11:58:40.671Z,1009.17
2018-06-11T11:59:40.633Z,1009.12
2018-06-11T12:00:40.610Z,1009.13
2018-06-11T12:01:40.572Z,1009.09
2018-06-11T12:02:40.535Z,1009.09
2018-06-11T12:03:40.502Z,1009.03
2018-06-11T12:04:40.465Z,1009.01
2018-06-11T12:05:40.450Z,1009.02
2018-06-11T12:06:40.399Z,1009.06
2018-06-11T12:07:40.430Z,1009.01